createdAt,value
2019-04-27T00:00:15.655Z,30.62
2019-04-27T00:02:51.069Z,30.67
2019-04-27T00:05:32.188Z,30.85
2019-04-27T00:08:03.675Z,30.83
2019-04-27T00:10:39.569Z,30.80
2019-04-27T00:13:12.933Z,30.99
2019-04-27T00:15:49.532Z,31.11
2019-04-27T00:18:24.096Z,31.05
2019-04-27T00:20:58.994Z,31.04
2019-04-27T00:23:33.987Z,31.02
2019-04-27T00:26:07.038Z,31.01
2019-04-27T00:28:39.691Z,31.06
2019-04-27T00:31:13.832Z,31.18
2019-04-27T00:33:47.911Z,31.28
2019-04-27T00:36:23.251Z,31.31
2019-04-27T00:38:57.790Z,31.32
2019-04-27T00:41:33.901Z,31.36
2019-04-27T00:44:06.564Z,31.49
2019-04-27T00:46:39.717Z,31.47
2019-04-27T00:49:15.895Z,31.50
2019-04-27T00:51:48.961Z,31.51
2019-04-27T00:54:21.613Z,31.52
2019-04-27T00:56:55.269Z,31.52
2019-04-27T00:59:30.174Z,31.55
2019-04-27T01:02:04.884Z,31.56
2019-04-27T01:04:37.516Z,31.56
2019-04-27T01:07:10.826Z,31.59
2019-04-27T01:09:42.934Z,31.63
2019-04-27T01:12:16.927Z,31.67
2019-04-27T01:14:49.107Z,31.70
2019-04-27T01:17:22.088Z,31.73
2019-04-27T01:19:59.557Z,31.76
2019-04-27T01:22:32.931Z,31.79
2019-04-27T01:25:08.792Z,31.82
2019-04-27T01:27:42.901Z,31.86
2019-04-27T01:30:20.585Z,31.93
2019-04-27T01:32:52.665Z,32.01
2019-04-27T01:35:26.013Z,32.06
2019-04-27T01:37:59.034Z,32.12
2019-04-27T01:40:33.417Z,32.16
2019-04-27T01:43:05.551Z,32.20
2019-04-27T01:45:39.208Z,32.17
2019-04-27T01:48:23.072Z,32.21
2019-04-27T01:50:45.276Z,32.26
2019-04-27T01:53:19.998Z,32.28
2019-04-27T01:55:54.058Z,32.28
2019-04-27T01:58:26.407Z,32.30
2019-04-27T02:01:01.862Z,32.34
2019-04-27T02:03:38.677Z,32.34
2019-04-27T02:06:16.268Z,32.36
2019-04-27T02:08:49.339Z,32.47
2019-04-27T02:11:24.084Z,32.80
2019-04-27T02:14:06.187Z,33.02
2019-04-27T02:16:50.236Z,33.08
2019-04-27T02:19:29.295Z,33.33
2019-04-27T02:22:02.753Z,33.44
2019-04-27T02:24:45.362Z,33.42
2019-04-27T02:27:21.232Z,33.36
2019-04-27T02:29:55.392Z,33.51
2019-04-27T02:32:34.943Z,33.75
2019-04-27T02:35:10.474Z,33.77
2019-04-27T02:37:45.734Z,33.60
2019-04-27T02:40:20.874Z,33.69
2019-04-27T02:42:54.557Z,33.59
2019-04-27T02:45:30.128Z,33.64
2019-04-27T02:48:03.161Z,33.75
2019-04-27T02:50:42.596Z,33.51
2019-04-27T02:53:23.050Z,33.46
2019-04-27T02:55:59.336Z,33.39
2019-04-27T02:58:33.090Z,33.50
2019-04-27T03:01:05.365Z,33.36
2019-04-27T03:03:37.686Z,33.12
2019-04-27T03:06:10.214Z,32.91
2019-04-27T03:08:42.945Z,32.74
2019-04-27T03:11:17.405Z,32.58
2019-04-27T03:13:59.891Z,32.45
2019-04-27T03:16:32.910Z,32.25
2019-04-27T03:19:17.968Z,32.15
2019-04-27T03:21:49.553Z,32.08
2019-04-27T03:24:25.785Z,31.93
2019-04-27T03:27:00.479Z,31.93
2019-04-27T03:29:33.984Z,31.84
2019-04-27T03:32:12.380Z,31.81
2019-04-27T03:34:43.295Z,31.94
2019-04-27T03:37:16.526Z,32.13
2019-04-27T03:39:50.336Z,32.27
2019-04-27T03:45:20.397Z,32.61
2019-04-27T03:48:00.746Z,32.74
2019-04-27T03:50:50.715Z,32.86
2019-04-27T03:53:29.782Z,33.07
2019-04-27T03:56:10.293Z,33.29
2019-04-27T03:58:52.747Z,33.32
2019-04-27T04:01:35.600Z,33.25
2019-04-27T04:04:14.360Z,33.33
2019-04-27T04:06:49.548Z,33.54
2019-04-27T04:09:24.069Z,33.48
2019-04-27T04:12:02.275Z,33.60
2019-04-27T04:14:42.517Z,33.84
2019-04-27T04:17:13.237Z,33.95
2019-04-27T04:19:54.281Z,33.90
2019-04-27T04:22:20.503Z,34.00
2019-04-27T04:24:53.401Z,33.98
2019-04-27T04:27:26.918Z,34.07
2019-04-27T04:30:00.598Z,34.00
2019-04-27T04:32:49.838Z,33.80
2019-04-27T04:35:27.022Z,33.82
2019-04-27T04:38:15.268Z,33.75
2019-04-27T04:40:50.361Z,33.85
2019-04-27T04:43:29.433Z,33.69
2019-04-27T04:48:53.129Z,33.67
2019-04-27T04:51:30.317Z,33.71
2019-04-27T04:54:03.153Z,34.00
2019-04-27T04:56:39.285Z,34.19
2019-04-27T04:59:15.414Z,34.21
2019-04-27T05:01:51.691Z,34.21
2019-04-27T05:04:29.042Z,34.40
2019-04-27T05:07:04.850Z,34.70
2019-04-27T05:09:39.871Z,34.69
2019-04-27T05:12:15.959Z,34.72
2019-04-27T05:14:52.484Z,34.76
2019-04-27T05:17:26.551Z,34.81
2019-04-27T05:19:59.572Z,34.91
2019-04-27T05:22:32.010Z,34.89
2019-04-27T05:25:05.950Z,34.78
2019-04-27T05:27:40.763Z,34.82
2019-04-27T06:01:29.585Z,35.22
2019-04-27T06:04:02.038Z,34.53
2019-04-27T06:06:39.871Z,34.24
2019-04-27T06:09:14.276Z,34.02
2019-04-27T06:11:50.617Z,33.84
2019-04-27T06:14:30.162Z,33.79
2019-04-27T06:17:02.470Z,33.77
2019-04-27T06:19:34.904Z,33.75
2019-04-27T06:22:09.693Z,33.73
2019-04-27T06:24:41.849Z,33.66
2019-04-27T06:27:14.401Z,33.61
2019-04-27T06:29:49.072Z,33.59
2019-04-27T06:32:30.006Z,33.59
2019-04-27T06:35:02.506Z,33.56
2019-04-27T06:37:35.712Z,33.50
2019-04-27T06:40:09.934Z,33.41
2019-04-27T06:42:45.173Z,33.35
2019-04-27T06:45:17.377Z,33.27
2019-04-27T06:47:52.069Z,33.16
2019-04-27T06:50:26.512Z,33.12
2019-04-27T06:53:00.518Z,33.10
2019-04-27T06:55:33.074Z,33.04
2019-04-27T06:58:05.559Z,33.01
2019-04-27T07:00:39.518Z,32.97
2019-04-27T07:03:18.885Z,32.93
2019-04-27T07:05:55.514Z,32.89
2019-04-27T07:08:30.864Z,32.89
2019-04-27T07:11:03.692Z,32.85
2019-04-27T07:13:38.923Z,32.80
2019-04-27T07:16:12.490Z,32.80
2019-04-27T07:18:46.225Z,32.80
2019-04-27T07:21:24.608Z,32.78
2019-04-27T07:23:54.645Z,32.76
2019-04-27T07:26:30.344Z,32.72
2019-04-27T07:29:03.394Z,32.72
2019-04-27T07:31:36.573Z,32.70
2019-04-27T07:34:10.042Z,32.71
2019-04-27T07:36:42.351Z,32.69
2019-04-27T07:39:21.919Z,32.70
2019-04-27T07:41:54.734Z,32.71
2019-04-27T07:44:29.664Z,32.69
2019-04-27T07:47:03.196Z,32.67
2019-04-27T07:49:36.302Z,32.68
2019-04-27T07:52:09.542Z,32.69
2019-04-27T07:54:42.047Z,32.70
2019-04-27T07:57:14.514Z,32.68
2019-04-27T07:59:46.832Z,32.71
2019-04-27T08:02:19.144Z,32.73
2019-04-27T08:04:51.693Z,32.75
2019-04-27T08:07:23.384Z,32.76
2019-04-27T08:09:56.164Z,32.77
2019-04-27T08:12:31.549Z,32.78
2019-04-27T08:15:08.951Z,32.81
2019-04-27T08:17:42.963Z,32.83
2019-04-27T08:20:14.776Z,32.86
2019-04-27T08:22:49.748Z,32.84
2019-04-27T08:25:25.898Z,32.86
2019-04-27T08:28:00.325Z,32.89
2019-04-27T08:30:40.539Z,32.89
2019-04-27T08:33:13.959Z,32.91
2019-04-27T08:35:46.728Z,32.93
2019-04-27T08:38:20.680Z,32.95
2019-04-27T08:40:54.401Z,32.98
2019-04-27T08:43:28.988Z,33.04
2019-04-27T08:46:01.009Z,33.10
2019-04-27T08:48:36.861Z,33.14
2019-04-27T08:51:10.213Z,33.21
2019-04-27T08:53:43.299Z,33.34
2019-04-27T08:56:16.123Z,33.39
2019-04-27T08:58:51.773Z,33.49
2019-04-27T09:01:24.836Z,33.51
2019-04-27T09:03:59.281Z,33.55
2019-04-27T09:06:31.763Z,33.56
2019-04-27T09:09:05.766Z,33.54
2019-04-27T09:11:40.082Z,33.59
2019-04-27T09:14:19.849Z,33.58
2019-04-27T09:17:02.258Z,33.57
2019-04-27T09:19:34.127Z,33.58
2019-04-27T09:22:15.818Z,33.59
2019-04-27T09:24:41.336Z,33.58
2019-04-27T09:27:17.120Z,33.56
2019-04-27T09:29:49.987Z,33.54
2019-04-27T09:32:22.499Z,33.56
2019-04-27T09:34:56.938Z,33.54
2019-04-27T09:37:29.783Z,33.53
2019-04-27T09:40:01.937Z,33.50
2019-04-27T09:42:36.248Z,33.50
2019-04-27T09:45:11.482Z,33.50
2019-04-27T09:47:46.865Z,33.50
2019-04-27T09:50:19.196Z,33.48
2019-04-27T09:52:51.238Z,33.48
2019-04-27T09:55:23.798Z,33.46
2019-04-27T09:57:57.664Z,33.46
2019-04-27T10:00:30.980Z,33.43
2019-04-27T10:03:02.981Z,33.42
2019-04-27T10:05:36.925Z,33.42
2019-04-27T10:08:09.834Z,33.41
2019-04-27T10:10:43.321Z,33.40
2019-04-27T10:13:16.933Z,33.39
2019-04-27T10:15:49.065Z,33.39
2019-04-27T10:18:22.626Z,33.37
2019-04-27T10:20:59.854Z,33.37
2019-04-27T10:23:28.770Z,33.36
2019-04-27T10:26:01.148Z,33.36
2019-04-27T10:28:35.419Z,33.35
2019-04-27T10:31:07.591Z,33.33
2019-04-27T10:33:40.306Z,33.32
2019-04-27T10:36:14.148Z,33.32
2019-04-27T10:38:47.894Z,33.30
2019-04-27T10:41:20.591Z,33.30
2019-04-27T10:43:53.579Z,33.31
2019-04-27T10:46:26.138Z,33.29
2019-04-27T10:49:00.298Z,33.27
2019-04-27T10:51:33.623Z,33.26
2019-04-27T10:54:10.504Z,33.27
2019-04-27T10:56:45.944Z,33.40
2019-04-27T10:59:17.982Z,33.46
2019-04-27T11:01:50.781Z,33.51
2019-04-27T11:04:25.952Z,33.50
2019-04-27T11:06:58.879Z,33.50
2019-04-27T11:09:32.079Z,33.51
2019-04-27T11:12:07.381Z,33.49
2019-04-27T11:14:42.020Z,33.52
2019-04-27T11:20:12.909Z,33.47
2019-04-27T11:22:46.728Z,33.49
2019-04-27T11:25:20.314Z,33.51
2019-04-27T11:27:52.127Z,33.47
2019-04-27T11:30:26.917Z,33.38
2019-04-27T11:32:59.423Z,33.37
2019-04-27T11:35:35.754Z,33.37
2019-04-27T11:38:07.949Z,33.36
2019-04-27T11:40:40.345Z,33.37
2019-04-27T11:43:13.801Z,33.39
2019-04-27T11:45:46.211Z,33.36
2019-04-27T11:48:21.336Z,33.34
2019-04-27T11:50:53.701Z,33.37
2019-04-27T11:53:26.335Z,33.35
2019-04-27T11:55:59.267Z,33.36
2019-04-27T11:58:34.948Z,33.32
2019-04-27T12:01:08.924Z,33.33
2019-04-27T12:03:41.462Z,33.32
2019-04-27T12:06:15.824Z,33.33
2019-04-27T12:08:47.803Z,33.33
2019-04-27T12:11:21.130Z,33.29
2019-04-27T12:13:53.656Z,33.30
2019-04-27T12:16:26.321Z,33.24
2019-04-27T12:18:59.923Z,33.26
2019-04-27T12:21:33.934Z,33.23
2019-04-27T12:24:08.046Z,33.21
2019-04-27T12:26:43.147Z,33.23
2019-04-27T12:29:16.993Z,33.25
2019-04-27T12:31:49.769Z,33.22
2019-04-27T12:34:27.877Z,33.24
2019-04-27T12:37:07.359Z,33.25
2019-04-27T12:39:40.138Z,33.23
2019-04-27T12:42:13.840Z,33.23
2019-04-27T12:44:46.332Z,33.19
2019-04-27T12:47:22.402Z,33.19
2019-04-27T12:49:57.523Z,33.23
2019-04-27T12:52:31.080Z,33.20
2019-04-27T12:55:07.725Z,33.18
2019-04-27T12:57:43.661Z,33.25
2019-04-27T13:00:19.394Z,33.19
2019-04-27T13:02:51.882Z,33.17
2019-04-27T13:05:25.826Z,33.20
2019-04-27T13:07:58.270Z,33.18
2019-04-27T13:10:31.397Z,33.15
2019-04-27T13:13:06.212Z,33.17
2019-04-27T13:15:40.517Z,33.16
2019-04-27T13:18:16.716Z,33.19
2019-04-27T13:21:01.622Z,33.20
2019-04-27T13:23:34.309Z,33.21
2019-04-27T13:26:11.399Z,33.16
2019-04-27T13:28:56.019Z,33.18
2019-04-27T13:31:40.557Z,33.15
2019-04-27T13:34:13.155Z,33.12
2019-04-27T13:36:48.066Z,33.13
2019-04-27T13:39:33.239Z,33.16
2019-04-27T13:42:18.616Z,33.15
2019-04-27T13:44:55.727Z,33.11
2019-04-27T13:47:32.803Z,33.08
2019-04-27T13:50:21.858Z,33.08
2019-04-27T13:53:09.738Z,33.03
2019-04-27T13:55:42.456Z,32.99
2019-04-27T13:58:21.567Z,32.97
2019-04-27T14:01:02.469Z,32.96
2019-04-27T14:03:37.297Z,33.00
2019-04-27T14:06:09.662Z,32.96
2019-04-27T14:08:49.623Z,32.93
2019-04-27T14:11:25.566Z,32.94
2019-04-27T14:14:07.624Z,32.95
2019-04-27T14:16:43.677Z,32.93
2019-04-27T14:19:18.945Z,32.99
2019-04-27T14:22:04.354Z,32.95
2019-04-27T14:24:49.615Z,32.90
2019-04-27T14:27:27.819Z,32.84
2019-04-27T14:30:00.127Z,32.87
2019-04-27T14:32:33.579Z,32.84
2019-04-27T14:35:08.687Z,32.86
2019-04-27T14:37:42.842Z,32.85
2019-04-27T14:40:16.241Z,32.75
2019-04-27T14:42:50.171Z,32.86
2019-04-27T14:45:23.183Z,32.86
2019-04-27T14:47:55.315Z,32.85
2019-04-27T14:50:29.088Z,32.85
2019-04-27T14:53:01.482Z,32.83
2019-04-27T15:02:04.783Z,33.11
2019-04-27T15:04:39.758Z,32.97
2019-04-27T15:07:11.523Z,32.94
2019-04-27T15:09:54.453Z,32.96
2019-04-27T15:12:30.795Z,32.86
2019-04-27T15:15:01.479Z,32.95
2019-04-27T15:17:35.557Z,32.86
2019-04-27T15:20:11.008Z,32.86
2019-04-27T15:22:43.278Z,32.92
2019-04-27T15:25:16.870Z,32.92
2019-04-27T15:27:51.348Z,32.88
2019-04-27T15:30:25.868Z,32.89
2019-04-27T15:33:10.480Z,32.92
2019-04-27T15:35:43.757Z,32.89
2019-04-27T15:38:15.353Z,32.88
2019-04-27T15:40:54.299Z,32.92
2019-04-27T15:43:27.342Z,32.89
2019-04-27T15:46:03.159Z,32.90
2019-04-27T15:48:38.504Z,32.84
2019-04-27T15:51:17.497Z,32.83
2019-04-27T15:53:50.920Z,32.86
2019-04-27T15:56:21.830Z,32.85
2019-04-27T15:59:00.017Z,32.92
2019-04-27T16:01:35.918Z,32.98
2019-04-27T16:04:07.602Z,32.92
2019-04-27T16:06:47.229Z,32.92
2019-04-27T16:09:23.896Z,32.95
2019-04-27T16:11:57.854Z,32.90
2019-04-27T16:14:28.925Z,32.90
2019-04-27T16:17:02.989Z,32.89
2019-04-27T16:19:42.660Z,32.86
2019-04-27T16:22:12.735Z,32.83
2019-04-27T16:24:49.427Z,32.84
2019-04-27T16:27:25.786Z,32.78
2019-04-27T16:30:04.785Z,32.83
2019-04-27T16:32:35.953Z,32.81
2019-04-27T16:35:13.735Z,32.80
2019-04-27T16:37:44.635Z,32.85
2019-04-27T16:40:24.538Z,32.93
2019-04-27T16:42:54.546Z,32.85
2019-04-27T16:45:28.103Z,32.85
2019-04-27T16:48:02.069Z,32.82
2019-04-27T16:50:36.340Z,32.75
2019-04-27T16:53:12.465Z,32.72
2019-04-27T16:55:44.930Z,32.74
2019-04-27T16:58:20.542Z,32.74
2019-04-27T17:00:54.042Z,32.80
2019-04-27T17:03:26.769Z,32.74
2019-04-27T17:06:04.063Z,32.70
2019-04-27T17:08:39.210Z,32.75
2019-04-27T17:11:13.762Z,32.75
2019-04-27T17:13:49.651Z,32.68
2019-04-27T17:16:31.214Z,32.72
2019-04-27T17:19:04.866Z,32.72
2019-04-27T17:21:38.613Z,32.75
2019-04-27T17:24:10.099Z,32.67
2019-04-27T17:26:43.709Z,32.67
2019-04-27T17:29:20.748Z,32.66
2019-04-27T17:31:56.724Z,32.71
2019-04-27T17:34:32.787Z,32.65
2019-04-27T17:37:08.941Z,32.70
2019-04-27T17:39:41.372Z,32.69
2019-04-27T17:42:22.767Z,32.65
2019-04-27T17:44:57.706Z,32.66
2019-04-27T17:47:38.850Z,32.60
2019-04-27T17:50:12.388Z,32.63
2019-04-27T17:52:49.762Z,32.58
2019-04-27T17:55:24.319Z,32.61
2019-04-27T17:58:00.485Z,32.63
2019-04-27T18:00:40.975Z,32.59
2019-04-27T18:03:08.362Z,32.62
2019-04-27T18:05:43.897Z,32.63
2019-04-27T18:08:18.403Z,32.53
2019-04-27T18:10:53.578Z,32.58
2019-04-27T18:13:28.839Z,32.58
2019-04-27T18:16:01.684Z,32.59
2019-04-27T18:18:35.703Z,32.61
2019-04-27T18:21:08.581Z,32.58
2019-04-27T18:23:45.371Z,32.58
2019-04-27T18:26:19.289Z,32.58
2019-04-27T18:28:54.132Z,32.56
2019-04-27T18:31:28.863Z,32.61
2019-04-27T18:34:01.677Z,32.60
2019-04-27T18:36:37.895Z,32.58
2019-04-27T18:39:13.622Z,32.55
2019-04-27T18:41:50.563Z,32.53
2019-04-27T18:44:23.983Z,32.52
2019-04-27T18:46:58.815Z,32.52
2019-04-27T18:49:34.120Z,32.51
2019-04-27T18:52:08.847Z,32.59
2019-04-27T18:54:42.484Z,32.55
2019-04-27T18:57:16.294Z,32.53
2019-04-27T18:59:49.484Z,32.53
2019-04-27T19:02:25.543Z,32.50
2019-04-27T19:04:59.386Z,32.57
2019-04-27T19:07:34.579Z,32.52
2019-04-27T19:10:12.069Z,32.50
2019-04-27T19:12:45.397Z,32.47
2019-04-27T19:15:21.780Z,32.48
2019-04-27T19:17:59.224Z,32.44
2019-04-27T19:20:32.729Z,32.40
2019-04-27T19:23:14.396Z,32.47
2019-04-27T19:25:48.260Z,32.43
2019-04-27T19:28:23.333Z,32.46
2019-04-27T19:31:00.558Z,32.40
2019-04-27T19:33:33.786Z,32.40
2019-04-27T19:36:08.743Z,32.45
2019-04-27T19:38:40.713Z,32.43
2019-04-27T19:41:13.682Z,32.46
2019-04-27T19:43:50.994Z,32.44
2019-04-27T19:46:24.992Z,32.43
2019-04-27T19:48:59.196Z,32.38
2019-04-27T19:51:32.000Z,32.36
2019-04-27T19:54:05.472Z,32.34
2019-04-27T19:56:39.139Z,32.34
2019-04-27T19:59:13.626Z,32.38
2019-04-27T20:01:50.553Z,32.33
2019-04-27T20:04:25.708Z,32.27
2019-04-27T20:06:58.039Z,32.27
2019-04-27T20:09:33.347Z,32.25
2019-04-27T20:12:08.238Z,32.33
2019-04-27T20:14:42.363Z,32.38
2019-04-27T20:17:16.466Z,32.24
2019-04-27T20:19:51.619Z,32.28
2019-04-27T20:22:27.602Z,32.27
2019-04-27T20:25:01.823Z,32.42
2019-04-27T20:27:46.152Z,32.38
2019-04-27T20:30:15.270Z,32.31
2019-04-27T20:32:52.187Z,32.29
2019-04-27T20:35:28.830Z,32.31
2019-04-27T20:38:05.065Z,32.36
2019-04-27T20:40:41.573Z,32.32
2019-04-27T20:43:15.360Z,32.31
2019-04-27T20:45:51.549Z,32.23
2019-04-27T20:48:24.732Z,32.23
2019-04-27T20:50:58.997Z,32.27
2019-04-27T20:53:33.769Z,32.25
2019-04-27T20:56:07.064Z,32.23
2019-04-27T20:58:41.125Z,32.20
2019-04-27T21:01:14.025Z,32.21
2019-04-27T21:03:51.078Z,32.18
2019-04-27T21:06:25.430Z,32.24
2019-04-27T21:09:00.858Z,32.26
2019-04-27T21:11:39.542Z,32.26
2019-04-27T21:14:12.544Z,32.25
2019-04-27T21:16:46.338Z,32.23
2019-04-27T21:19:18.731Z,32.22
2019-04-27T21:21:52.295Z,32.18
2019-04-27T21:24:24.285Z,32.28
2019-04-27T21:26:56.965Z,32.26
2019-04-27T21:29:31.194Z,32.20
2019-04-27T21:32:07.858Z,32.28
2019-04-27T21:34:41.302Z,32.26
2019-04-27T21:37:15.784Z,32.28
2019-04-27T21:39:51.421Z,32.25
2019-04-27T21:42:24.139Z,32.28
2019-04-27T21:44:56.804Z,32.23
2019-04-27T21:47:29.809Z,32.25
2019-04-27T21:50:03.501Z,32.24
2019-04-27T21:52:41.703Z,32.31
2019-04-27T21:55:16.208Z,32.38
2019-04-27T21:57:51.182Z,32.24
2019-04-27T22:00:26.645Z,32.33
2019-04-27T22:03:01.193Z,32.30
2019-04-27T22:05:35.278Z,32.44
2019-04-27T22:08:08.519Z,32.37
2019-04-27T22:10:41.405Z,32.43
2019-04-27T22:13:15.520Z,32.46
2019-04-27T22:15:48.342Z,32.32
2019-04-27T22:18:21.309Z,32.44
2019-04-27T22:20:54.073Z,32.32
